sensor_id;sensor_type;location;lat;lon;timestamp;temperature;humidity
65766;SHT31;52915;53.718;19.946;2023-06-14T15:29:55;17.27;69.89
65766;SHT31;52915;53.718;19.946;2023-06-14T15:34:59;16.83;70.72
65766;SHT31;52915;53.718;19.946;2023-06-14T15:40:02;16.52;71.49
65766;SHT31;52915;53.718;19.946;2023-06-14T15:45:08;16.35;72.39
65766;SHT31;52915;53.718;19.946;2023-06-14T15:50:32;16.13;73.67
65766;SHT31;52915;53.718;19.946;2023-06-14T15:55:49;16.00;74.54
65766;SHT31;52915;53.718;19.946;2023-06-14T16:01:03;16.01;74.57
65766;SHT31;52915;53.718;19.946;2023-06-14T16:06:27;15.99;74.74
65766;SHT31;52915;53.718;19.946;2023-06-14T16:11:52;15.97;74.68
65766;SHT31;52915;53.718;19.946;2023-06-14T16:17:10;15.88;74.99
65766;SHT31;52915;53.718;19.946;2023-06-14T16:22:43;15.80;75.51
65766;SHT31;52915;53.718;19.946;2023-06-14T16:27:51;15.78;75.92
65766;SHT31;52915;53.718;19.946;2023-06-14T16:33:07;15.78;75.93
65766;SHT31;52915;53.718;19.946;2023-06-14T16:38:19;15.77;76.36
65766;SHT31;52915;53.718;19.946;2023-06-14T16:43:55;15.77;76.82
65766;SHT31;52915;53.718;19.946;2023-06-14T16:49:00;15.76;77.07
65766;SHT31;52915;53.718;19.946;2023-06-14T16:54:05;15.80;77.09
65766;SHT31;52915;53.718;19.946;2023-06-14T16:59:09;15.88;76.81
65766;SHT31;52915;53.718;19.946;2023-06-14T17:04:14;15.90;76.90
65766;SHT31;52915;53.718;19.946;2023-06-14T17:09:17;15.85;77.25
65766;SHT31;52915;53.718;19.946;2023-06-14T17:14:20;15.80;77.18
65766;SHT31;52915;53.718;19.946;2023-06-14T17:19:23;15.77;77.29
65766;SHT31;52915;53.718;19.946;2023-06-14T17:24:26;15.72;77.69
65766;SHT31;52915;53.718;19.946;2023-06-14T17:29:30;15.68;77.69
65766;SHT31;52915;53.718;19.946;2023-06-14T17:34:32;15.60;77.80
65766;SHT31;52915;53.718;19.946;2023-06-14T17:39:36;15.58;77.88
65766;SHT31;52915;53.718;19.946;2023-06-14T17:44:42;15.56;77.90
65766;SHT31;52915;53.718;19.946;2023-06-14T17:49:46;15.52;78.10
65766;SHT31;52915;53.718;19.946;2023-06-14T17:54:54;15.49;78.13
65766;SHT31;52915;53.718;19.946;2023-06-14T18:00:02;15.45;78.28
65766;SHT31;52915;53.718;19.946;2023-06-14T18:05:06;15.42;78.33
65766;SHT31;52915;53.718;19.946;2023-06-14T18:10:11;15.47;78.27
65766;SHT31;52915;53.718;19.946;2023-06-14T18:15:17;15.48;78.34
65766;SHT31;52915;53.718;19.946;2023-06-14T18:20:23;15.51;77.92
65766;SHT31;52915;53.718;19.946;2023-06-14T18:25:28;15.54;77.93
65766;SHT31;52915;53.718;19.946;2023-06-14T18:30:32;15.50;78.08
65766;SHT31;52915;53.718;19.946;2023-06-14T18:35:38;15.56;78.11
65766;SHT31;52915;53.718;19.946;2023-06-14T18:40:46;15.52;78.36
65766;SHT31;52915;53.718;19.946;2023-06-14T18:45:49;15.49;78.42
65766;SHT31;52915;53.718;19.946;2023-06-14T18:50:53;15.41;78.46
65766;SHT31;52915;53.718;19.946;2023-06-14T18:55:57;15.50;78.28
65766;SHT31;52915;53.718;19.946;2023-06-14T19:01:02;15.49;78.39
65766;SHT31;52915;53.718;19.946;2023-06-14T19:06:06;15.45;78.72
65766;SHT31;52915;53.718;19.946;2023-06-14T19:11:12;15.38;79.09
65766;SHT31;52915;53.718;19.946;2023-06-14T19:16:15;15.30;79.47
65766;SHT31;52915;53.718;19.946;2023-06-14T19:21:19;15.33;79.56
65766;SHT31;52915;53.718;19.946;2023-06-14T19:26:23;15.31;79.64
65766;SHT31;52915;53.718;19.946;2023-06-14T19:31:31;15.30;79.94
65766;SHT31;52915;53.718;19.946;2023-06-14T19:36:35;15.33;79.91
65766;SHT31;52915;53.718;19.946;2023-06-14T19:41:38;15.33;79.95
65766;SHT31;52915;53.718;19.946;2023-06-14T19:47:01;15.27;80.28
65766;SHT31;52915;53.718;19.946;2023-06-14T19:52:06;15.23;80.56
65766;SHT31;52915;53.718;19.946;2023-06-14T19:57:09;15.32;80.38
65766;SHT31;52915;53.718;19.946;2023-06-14T20:02:13;15.39;80.34
65766;SHT31;52915;53.718;19.946;2023-06-14T20:07:16;15.36;80.50
65766;SHT31;52915;53.718;19.946;2023-06-14T20:12:19;15.29;80.63
65766;SHT31;52915;53.718;19.946;2023-06-14T20:17:29;15.24;80.71
65766;SHT31;52915;53.718;19.946;2023-06-14T20:22:32;15.26;80.45
65766;SHT31;52915;53.718;19.946;2023-06-14T20:27:42;15.26;80.21
65766;SHT31;52915;53.718;19.946;2023-06-14T20:32:45;15.21;80.25
65766;SHT31;52915;53.718;19.946;2023-06-14T20:37:50;15.20;80.32
65766;SHT31;52915;53.718;19.946;2023-06-14T20:42:54;15.19;80.51
65766;SHT31;52915;53.718;19.946;2023-06-14T20:47:59;15.20;80.48
65766;SHT31;52915;53.718;19.946;2023-06-14T20:53:02;15.19;80.50
65766;SHT31;52915;53.718;19.946;2023-06-14T20:58:05;15.17;80.50
65766;SHT31;52915;53.718;19.946;2023-06-14T21:03:08;15.17;80.58
65766;SHT31;52915;53.718;19.946;2023-06-14T21:08:12;15.19;80.54
65766;SHT31;52915;53.718;19.946;2023-06-14T21:13:14;15.20;80.34
65766;SHT31;52915;53.718;19.946;2023-06-14T21:18:17;15.18;80.27
65766;SHT31;52915;53.718;19.946;2023-06-14T21:23:21;15.20;80.18
65766;SHT31;52915;53.718;19.946;2023-06-14T21:28:24;15.20;80.18
65766;SHT31;52915;53.718;19.946;2023-06-14T21:33:27;15.18;80.19
65766;SHT31;52915;53.718;19.946;2023-06-14T21:38:31;15.15;80.24
65766;SHT31;52915;53.718;19.946;2023-06-14T21:43:34;15.13;80.28
65766;SHT31;52915;53.718;19.946;2023-06-14T21:48:39;15.07;80.27
65766;SHT31;52915;53.718;19.946;2023-06-14T21:53:43;14.98;80.58
65766;SHT31;52915;53.718;19.946;2023-06-14T21:58:50;14.97;80.89
65766;SHT31;52915;53.718;19.946;2023-06-14T22:03:53;15.02;80.90
65766;SHT31;52915;53.718;19.946;2023-06-14T22:08:56;15.09;80.87
65766;SHT31;52915;53.718;19.946;2023-06-14T22:13:59;15.09;81.00
65766;SHT31;52915;53.718;19.946;2023-06-14T22:19:03;15.07;81.12
65766;SHT31;52915;53.718;19.946;2023-06-14T22:24:08;15.06;81.18
65766;SHT31;52915;53.718;19.946;2023-06-14T22:29:11;15.03;81.21
65766;SHT31;52915;53.718;19.946;2023-06-14T22:34:14;15.03;81.18
65766;SHT31;52915;53.718;19.946;2023-06-14T22:39:17;15.03;81.23
65766;SHT31;52915;53.718;19.946;2023-06-14T22:44:22;15.08;81.14
65766;SHT31;52915;53.718;19.946;2023-06-14T22:49:26;15.01;81.25
65766;SHT31;52915;53.718;19.946;2023-06-14T22:54:32;14.97;81.43
65766;SHT31;52915;53.718;19.946;2023-06-14T22:59:36;14.98;81.47
65766;SHT31;52915;53.718;19.946;2023-06-14T23:04:39;15.02;81.34
65766;SHT31;52915;53.718;19.946;2023-06-14T23:09:42;15.06;81.32
65766;SHT31;52915;53.718;19.946;2023-06-14T23:14:45;15.06;81.31
65766;SHT31;52915;53.718;19.946;2023-06-14T23:19:51;15.01;81.23
65766;SHT31;52915;53.718;19.946;2023-06-14T23:24:54;14.97;81.25
65766;SHT31;52915;53.718;19.946;2023-06-14T23:29:57;14.99;81.15
65766;SHT31;52915;53.718;19.946;2023-06-14T23:35:01;15.02;81.03
65766;SHT31;52915;53.718;19.946;2023-06-14T23:40:08;15.03;80.94
65766;SHT31;52915;53.718;19.946;2023-06-14T23:45:14;15.08;80.73
65766;SHT31;52915;53.718;19.946;2023-06-14T23:50:19;15.04;80.79
65766;SHT31;52915;53.718;19.946;2023-06-14T23:55:23;15.00;80.82
